Sunmi — C6WS3 — position and weather

sailwx.info

Track history (hours):
 
Tides and Currents Weather Stations Pressure Air Temp Water Temp Dewpoint Dewpoint Depression Visibility Wind Speed Wind Dir Waves Ship Positions

Sunmi

Last reported at 2017-Sep-19 16:58 UTC. Time now 2017-Sep-21 09:05 UTC.
Position N 47°37' W 006°48'.

Length 90 m; draft 6 m.

Type: Ship. MMSI: 309937000.

Date/timePositionNaut miles runAvg speedWind from/ knotsBaromVisibWave heightAir tempDewpointWater temp
2017-Sep-19 16:58N 47°37' W 006°48'10 9.9
2017-Sep-19 15:58N 47°46' W 006°40'9 9.5
2017-Sep-19 14:58N 47°54' W 006°33'9 8.8
2017-Sep-19 13:58N 48°02' W 006°27'154 9.4
2017-Sep-18 21:36N 49°44' W 003°32'310.5
2017-Sep-18 21:17N 49°46' W 003°28'310.3
2017-Sep-18 21:00N 49°47' W 003°24'510.3
2017-Sep-18 20:30N 49°50' W 003°17'5 9.4
2017-Sep-18 20:00N 49°52' W 003°10'5 8.7
2017-Sep-18 19:24N 49°54' W 003°03'3 8.5
2017-Sep-18 19:00N 49°56' W 002°59'4 8.5
2017-Sep-18 18:30N 49°58' W 002°53'4 8.3
2017-Sep-18 17:59N 49°59' W 002°46'32 9.4
2017-Sep-18 14:33N 50°10' W 001°59'412.5
2017-Sep-18 14:12N 50°11' W 001°53'312.8
2017-Sep-18 14:00N 50°12' W 001°49'713.2
2017-Sep-18 13:30N 50°14' W 001°39'5911.7
2017-Sep-18 08:29N 50°30' W 000°10'4 9.3
2017-Sep-18 08:00N 50°31' W 000°03'4 9.0
2017-Sep-18 07:30N 50°33' E 000°03'4 8.8
2017-Sep-18 07:00N 50°34' E 000°10'4 9.0
2017-Sep-18 06:30N 50°35' E 000°17'5 9.2
2017-Sep-18 05:58N 50°37' E 000°24'4 9.8
2017-Sep-18 05:30N 50°38' E 000°31'510.2
2017-Sep-18 05:00N 50°41' E 000°38'510.6
2017-Sep-18 04:30N 50°44' E 000°45'510.6
2017-Sep-18 04:00N 50°47' E 000°52'610.1
2017-Sep-18 03:27N 50°50' E 000°59'1310.1
2017-Sep-18 02:12N 50°58' E 001°15'210.2
2017-Sep-18 01:59N 50°59' E 001°18'510.5
2017-Sep-18 01:29N 51°02' E 001°24'510.2
2017-Sep-18 01:00N 51°06' E 001°30'4 9.0
2017-Sep-18 00:31N 51°09' E 001°35'4 8.3
2017-Sep-18 00:00N 51°11' E 001°40'4 8.5
2017-Sep-17 23:30N 51°14' E 001°45'4 8.6
2017-Sep-17 23:00N 51°18' E 001°48'4 8.8
2017-Sep-17 22:30N 51°22' E 001°51'5 9.3
2017-Sep-17 22:00N 51°26' E 001°55'5 9.7
2017-Sep-17 21:30N 51°30' E 001°59'510.4
2017-Sep-17 21:00N 51°34' E 002°05'27810.0
2017-Sep-16 17:19N 55°25' E 006°23'310.4
2017-Sep-16 16:59N 55°28' E 006°26'510.3
2017-Sep-16 16:29N 55°33' E 006°30'510.2
2017-Sep-16 16:00N 55°37' E 006°35'510.2
2017-Sep-16 15:30N 55°41' E 006°39'118 9.9
2017-Sep-16 03:38N 57°22' E 008°30'74 9.8
2017-Sep-15 20:08N 58°22' E 009°51'410.2
2017-Sep-15 19:46N 58°25' E 009°55'510.5
2017-Sep-15 19:18N 58°29' E 010°00'610.4
2017-Sep-15 18:40N 58°34' E 010°07'210.1
2017-Sep-15 18:30N 58°36' E 010°09'510.8
2017-Sep-15 18:00N 58°40' E 010°15'510.4
2017-Sep-15 17:30N 58°44' E 010°21'510.0
2017-Sep-15 17:00N 58°49' E 010°26'510.4
2017-Sep-15 16:30N 58°53' E 010°32'510.8
2017-Sep-15 16:01N 58°57' E 010°39'611.1
2017-Sep-15 15:31N 59°01' E 010°45'5 9.6
2017-Sep-15 15:00N 59°01' E 010°55'4 7.2
2017-Sep-15 14:30N 59°04' E 010°58'510.8
2017-Sep-15 14:00N 59°10' E 010°57'1 2.9
2017-Sep-15 13:30N 59°11' E 010°57'0 0.0
2017-Sep-15 13:00N 59°11' E 010°57'0 0.0
2017-Sep-15 12:30N 59°11' E 010°57'0 0.0
2017-Sep-15 12:00N 59°11' E 010°57'0 0.0
2017-Sep-15 11:30N 59°11' E 010°57'0 0.0
2017-Sep-15 11:00N 59°11' E 010°57'0 0.0
2017-Sep-15 10:30N 59°11' E 010°57'0 0.0
2017-Sep-15 10:00N 59°11' E 010°57'0 0.0
2017-Sep-15 09:30N 59°11' E 010°57'0 0.0
2017-Sep-15 09:00N 59°11' E 010°57'0 0.0
2017-Sep-15 08:30N 59°11' E 010°57'0 0.0
2017-Sep-15 08:00N 59°11' E 010°57'0 0.0
2017-Sep-15 07:30N 59°11' E 010°57'0 0.0
2017-Sep-15 07:00N 59°11' E 010°57'0 0.0
2017-Sep-15 06:30N 59°11' E 010°57'0 0.0
2017-Sep-15 06:00N 59°11' E 010°57'0 0.0
2017-Sep-15 05:30N 59°11' E 010°57'0 0.0
2017-Sep-15 05:00N 59°11' E 010°57'0 0.0
2017-Sep-15 04:30N 59°11' E 010°57'0 0.0
2017-Sep-15 04:00N 59°11' E 010°57'0 0.0
2017-Sep-15 03:30N 59°11' E 010°57'0 0.0
2017-Sep-15 03:00N 59°11' E 010°57'0 0.0
2017-Sep-15 02:30N 59°11' E 010°57'0 0.0
2017-Sep-15 02:00N 59°11' E 010°57'0 0.0
2017-Sep-15 01:30N 59°11' E 010°57'0 0.0
2017-Sep-15 01:00N 59°11' E 010°57'0 0.0
2017-Sep-15 00:30N 59°11' E 010°57'0 0.0
2017-Sep-15 00:00N 59°11' E 010°57'0 0.0
2017-Sep-14 23:30N 59°11' E 010°57'0 0.0
2017-Sep-14 23:00N 59°11' E 010°57'0 0.0
2017-Sep-14 22:30N 59°11' E 010°57'0 0.0
2017-Sep-14 22:00N 59°11' E 010°57'0 0.0
2017-Sep-14 21:30N 59°11' E 010°57'0 0.0
2017-Sep-14 21:00N 59°11' E 010°57'0 0.0
2017-Sep-14 20:30N 59°11' E 010°57'0 0.0
2017-Sep-14 20:00N 59°11' E 010°57'0 0.0
2017-Sep-14 19:30N 59°11' E 010°57'0 0.0
2017-Sep-14 19:00N 59°11' E 010°57'0 0.0
2017-Sep-14 18:30N 59°11' E 010°57'0 0.0
2017-Sep-14 18:00N 59°11' E 010°57'0 0.0
2017-Sep-14 17:30N 59°11' E 010°57'0 0.0
2017-Sep-14 17:00N 59°11' E 010°57'0 0.0
2017-Sep-14 16:30N 59°11' E 010°57'0 0.0
2017-Sep-14 16:00N 59°11' E 010°57'0 0.0
2017-Sep-14 15:30N 59°11' E 010°57'0 0.2
2017-Sep-14 15:00N 59°11' E 010°57'4 7.6
2017-Sep-14 14:30N 59°07' E 010°58'510.1
2017-Sep-14 14:00N 59°02' E 010°58'4 8.9
2017-Sep-14 13:30N 59°02' E 010°50'5 9.9
2017-Sep-14 13:00N 58°59' E 010°41'510.2
2017-Sep-14 12:30N 58°56' E 010°34'5 9.7
2017-Sep-14 12:00N 58°52' E 010°27'510.4
2017-Sep-14 11:30N 58°49' E 010°21'510.7
2017-Sep-14 11:00N 58°45' E 010°13'610.8
2017-Sep-14 10:29N 58°41' E 010°06'3310.5
2017-Sep-14 07:19N 58°16' E 009°22'710.4
2017-Sep-14 06:39N 58°11' E 009°13'210.3
2017-Sep-14 06:26N 58°10' E 009°10'410.2
2017-Sep-14 06:00N 58°06' E 009°04'610.4
2017-Sep-14 05:27N 58°02' E 008°57'510.7
2017-Sep-14 04:59N 57°58' E 008°51'510.3
2017-Sep-14 04:30N 57°56' E 008°43'510.2
2017-Sep-14 04:00N 57°54' E 008°34'510.4
2017-Sep-14 03:31N 57°51' E 008°26'5 9.9
2017-Sep-14 02:59N 57°49' E 008°17'5 9.8
2017-Sep-14 02:30N 57°46' E 008°09'510.6
2017-Sep-14 02:00N 57°44' E 008°01'33010.6
2017-Sep-12 18:53N 56°17' W 001°44'411.3
2017-Sep-12 18:30N 56°16' W 001°51'611.4
2017-Sep-12 18:01N 56°14' W 002°01'611.3
2017-Sep-12 17:31N 56°13' W 002°11'611.3
2017-Sep-12 17:01N 56°11' W 002°21'611.2
2017-Sep-12 16:30N 56°09' W 002°30'611.0
2017-Sep-12 16:01N 56°07' W 002°40'611.1
2017-Sep-12 15:31N 56°06' W 002°49'611.1
2017-Sep-12 15:01N 56°04' W 002°58'5 9.6
2017-Sep-12 14:31N 56°02' W 003°07'5 9.4
2017-Sep-12 14:01N 56°02' W 003°15'5 9.3
2017-Sep-12 13:31N 56°00' W 003°23'5 9.3
2017-Sep-12 13:00N 56°01' W 003°31'  
Track history (hours):
 
Tides and Currents Weather Stations Pressure Air Temp Water Temp Dewpoint Dewpoint Depression Visibility Wind Speed Wind Dir Waves Ship Positions

Sunmi

Last reported at 2017-Sep-19 16:58 UTC. Time now 2017-Sep-21 09:05 UTC.
Position N 47°37' W 006°48'.

Length 90 m; draft 6 m.

Type: Ship. MMSI: 309937000.

Date/timePositionNaut miles runAvg speedWind from/ knotsBaromVisibWave heightAir tempDewpointWater temp
2017-Sep-19 16:58N 47°37' W 006°48'10 9.9
2017-Sep-19 15:58N 47°46' W 006°40'9 9.5
2017-Sep-19 14:58N 47°54' W 006°33'9 8.8
2017-Sep-19 13:58N 48°02' W 006°27'154 9.4
2017-Sep-18 21:36N 49°44' W 003°32'310.5
2017-Sep-18 21:17N 49°46' W 003°28'310.3
2017-Sep-18 21:00N 49°47' W 003°24'510.3
2017-Sep-18 20:30N 49°50' W 003°17'5 9.4
2017-Sep-18 20:00N 49°52' W 003°10'5 8.7
2017-Sep-18 19:24N 49°54' W 003°03'3 8.5
2017-Sep-18 19:00N 49°56' W 002°59'4 8.5
2017-Sep-18 18:30N 49°58' W 002°53'4 8.3
2017-Sep-18 17:59N 49°59' W 002°46'32 9.4
2017-Sep-18 14:33N 50°10' W 001°59'412.5
2017-Sep-18 14:12N 50°11' W 001°53'312.8
2017-Sep-18 14:00N 50°12' W 001°49'713.2
2017-Sep-18 13:30N 50°14' W 001°39'5911.7
2017-Sep-18 08:29N 50°30' W 000°10'4 9.3
2017-Sep-18 08:00N 50°31' W 000°03'4 9.0
2017-Sep-18 07:30N 50°33' E 000°03'4 8.8
2017-Sep-18 07:00N 50°34' E 000°10'4 9.0
2017-Sep-18 06:30N 50°35' E 000°17'5 9.2
2017-Sep-18 05:58N 50°37' E 000°24'4 9.8
2017-Sep-18 05:30N 50°38' E 000°31'510.2
2017-Sep-18 05:00N 50°41' E 000°38'510.6
2017-Sep-18 04:30N 50°44' E 000°45'510.6
2017-Sep-18 04:00N 50°47' E 000°52'610.1
2017-Sep-18 03:27N 50°50' E 000°59'1310.1
2017-Sep-18 02:12N 50°58' E 001°15'210.2
2017-Sep-18 01:59N 50°59' E 001°18'510.5
2017-Sep-18 01:29N 51°02' E 001°24'510.2
2017-Sep-18 01:00N 51°06' E 001°30'4 9.0
2017-Sep-18 00:31N 51°09' E 001°35'4 8.3
2017-Sep-18 00:00N 51°11' E 001°40'4 8.5
2017-Sep-17 23:30N 51°14' E 001°45'4 8.6
2017-Sep-17 23:00N 51°18' E 001°48'4 8.8
2017-Sep-17 22:30N 51°22' E 001°51'5 9.3
2017-Sep-17 22:00N 51°26' E 001°55'5 9.7
2017-Sep-17 21:30N 51°30' E 001°59'510.4
2017-Sep-17 21:00N 51°34' E 002°05'27810.0
2017-Sep-16 17:19N 55°25' E 006°23'310.4
2017-Sep-16 16:59N 55°28' E 006°26'510.3
2017-Sep-16 16:29N 55°33' E 006°30'510.2
2017-Sep-16 16:00N 55°37' E 006°35'510.2
2017-Sep-16 15:30N 55°41' E 006°39'118 9.9
2017-Sep-16 03:38N 57°22' E 008°30'74 9.8
2017-Sep-15 20:08N 58°22' E 009°51'410.2
2017-Sep-15 19:46N 58°25' E 009°55'510.5
2017-Sep-15 19:18N 58°29' E 010°00'610.4
2017-Sep-15 18:40N 58°34' E 010°07'210.1
2017-Sep-15 18:30N 58°36' E 010°09'510.8
2017-Sep-15 18:00N 58°40' E 010°15'510.4
2017-Sep-15 17:30N 58°44' E 010°21'510.0
2017-Sep-15 17:00N 58°49' E 010°26'510.4
2017-Sep-15 16:30N 58°53' E 010°32'510.8
2017-Sep-15 16:01N 58°57' E 010°39'611.1
2017-Sep-15 15:31N 59°01' E 010°45'5 9.6
2017-Sep-15 15:00N 59°01' E 010°55'4 7.2
2017-Sep-15 14:30N 59°04' E 010°58'510.8
2017-Sep-15 14:00N 59°10' E 010°57'1 2.9
2017-Sep-15 13:30N 59°11' E 010°57'0 0.0
2017-Sep-15 13:00N 59°11' E 010°57'0 0.0
2017-Sep-15 12:30N 59°11' E 010°57'0 0.0
2017-Sep-15 12:00N 59°11' E 010°57'0 0.0
2017-Sep-15 11:30N 59°11' E 010°57'0 0.0
2017-Sep-15 11:00N 59°11' E 010°57'0 0.0
2017-Sep-15 10:30N 59°11' E 010°57'0 0.0
2017-Sep-15 10:00N 59°11' E 010°57'0 0.0
2017-Sep-15 09:30N 59°11' E 010°57'0 0.0
2017-Sep-15 09:00N 59°11' E 010°57'0 0.0
2017-Sep-15 08:30N 59°11' E 010°57'0 0.0
2017-Sep-15 08:00N 59°11' E 010°57'0 0.0
2017-Sep-15 07:30N 59°11' E 010°57'0 0.0
2017-Sep-15 07:00N 59°11' E 010°57'0 0.0
2017-Sep-15 06:30N 59°11' E 010°57'0 0.0
2017-Sep-15 06:00N 59°11' E 010°57'0 0.0
2017-Sep-15 05:30N 59°11' E 010°57'0 0.0
2017-Sep-15 05:00N 59°11' E 010°57'0 0.0
2017-Sep-15 04:30N 59°11' E 010°57'0 0.0
2017-Sep-15 04:00N 59°11' E 010°57'0 0.0
2017-Sep-15 03:30N 59°11' E 010°57'0 0.0
2017-Sep-15 03:00N 59°11' E 010°57'0 0.0
2017-Sep-15 02:30N 59°11' E 010°57'0 0.0
2017-Sep-15 02:00N 59°11' E 010°57'0 0.0
2017-Sep-15 01:30N 59°11' E 010°57'0 0.0
2017-Sep-15 01:00N 59°11' E 010°57'0 0.0
2017-Sep-15 00:30N 59°11' E 010°57'0 0.0
2017-Sep-15 00:00N 59°11' E 010°57'0 0.0
2017-Sep-14 23:30N 59°11' E 010°57'0 0.0
2017-Sep-14 23:00N 59°11' E 010°57'0 0.0
2017-Sep-14 22:30N 59°11' E 010°57'0 0.0
2017-Sep-14 22:00N 59°11' E 010°57'0 0.0
2017-Sep-14 21:30N 59°11' E 010°57'0 0.0
2017-Sep-14 21:00N 59°11' E 010°57'0 0.0
2017-Sep-14 20:30N 59°11' E 010°57'0 0.0
2017-Sep-14 20:00N 59°11' E 010°57'0 0.0
2017-Sep-14 19:30N 59°11' E 010°57'0 0.0
2017-Sep-14 19:00N 59°11' E 010°57'0 0.0
2017-Sep-14 18:30N 59°11' E 010°57'0 0.0
2017-Sep-14 18:00N 59°11' E 010°57'0 0.0
2017-Sep-14 17:30N 59°11' E 010°57'0 0.0
2017-Sep-14 17:00N 59°11' E 010°57'0 0.0
2017-Sep-14 16:30N 59°11' E 010°57'0 0.0
2017-Sep-14 16:00N 59°11' E 010°57'0 0.0
2017-Sep-14 15:30N 59°11' E 010°57'0 0.2
2017-Sep-14 15:00N 59°11' E 010°57'4 7.6
2017-Sep-14 14:30N 59°07' E 010°58'510.1
2017-Sep-14 14:00N 59°02' E 010°58'4 8.9
2017-Sep-14 13:30N 59°02' E 010°50'5 9.9
2017-Sep-14 13:00N 58°59' E 010°41'510.2
2017-Sep-14 12:30N 58°56' E 010°34'5 9.7
2017-Sep-14 12:00N 58°52' E 010°27'510.4
2017-Sep-14 11:30N 58°49' E 010°21'510.7
2017-Sep-14 11:00N 58°45' E 010°13'610.8
2017-Sep-14 10:29N 58°41' E 010°06'3310.5
2017-Sep-14 07:19N 58°16' E 009°22'710.4
2017-Sep-14 06:39N 58°11' E 009°13'210.3
2017-Sep-14 06:26N 58°10' E 009°10'410.2
2017-Sep-14 06:00N 58°06' E 009°04'610.4
2017-Sep-14 05:27N 58°02' E 008°57'510.7
2017-Sep-14 04:59N 57°58' E 008°51'510.3
2017-Sep-14 04:30N 57°56' E 008°43'510.2
2017-Sep-14 04:00N 57°54' E 008°34'510.4
2017-Sep-14 03:31N 57°51' E 008°26'5 9.9
2017-Sep-14 02:59N 57°49' E 008°17'5 9.8
2017-Sep-14 02:30N 57°46' E 008°09'510.6
2017-Sep-14 02:00N 57°44' E 008°01'33010.6
2017-Sep-12 18:53N 56°17' W 001°44'411.3
2017-Sep-12 18:30N 56°16' W 001°51'611.4
2017-Sep-12 18:01N 56°14' W 002°01'611.3
2017-Sep-12 17:31N 56°13' W 002°11'611.3
2017-Sep-12 17:01N 56°11' W 002°21'611.2
2017-Sep-12 16:30N 56°09' W 002°30'611.0
2017-Sep-12 16:01N 56°07' W 002°40'611.1
2017-Sep-12 15:31N 56°06' W 002°49'611.1
2017-Sep-12 15:01N 56°04' W 002°58'5 9.6
2017-Sep-12 14:31N 56°02' W 003°07'5 9.4
2017-Sep-12 14:01N 56°02' W 003°15'5 9.3
2017-Sep-12 13:31N 56°00' W 003°23'5 9.3
2017-Sep-12 13:00N 56°01' W 003°31'  

Dump ship's entire track history